Dades meteomassalio
Diari Summary for Marc 10, 2018 Units:  English    Metric   Both
« Previous Day
Next Day »
Diari Semanal Mensual Anual Personalitzat
  Maxima: Minima: Mijana:
Temperatura: TemperatureC °F 8.3 °F 13.7 °F
Rosada: DewpointC °F 4.2 °F 8.2 °F
Humitat: Humidity % 44 % 71 %
Velocitat del vent: WindSpeedKMH mph 0.0 mph 4.4 mph
Racha vent: WindSpeedGustKMH mph - -
Vent:- - WSW
Pressio: PressurehPa in 1003.9 in -
Pluja: 2.3 in    
Historical Graphs
 
 
Tabular Data for Marc 10, 2018
Time Temperature Dew Point Pressure Wind Wind Speed Wind Gust Humidity Rainfall Rate (Hourly) solar Conditions
TemperatureC °F DewpointC °F PressurehPa in Calm     Humidity % HourlyPrecipMM in SolarRadiationWatts/m^2 W/m2 Conditions
00:04 11.1 °F 9.1 °F 1010.4 in Calm     87 % 0.0 in 0.0 W/m2 RA
00:09 11.1 °F 9.1 °F 1010.4 in ENE 8.0 mph 8.0 mph 87 % 0.0 in 0.0 W/m2 CLR
00:14 11.1 °F 9.2 °F 1010.4 in Calm     88 % 0.0 in 0.0 W/m2 CLR
00:19 11.1 °F 9.2 °F 1010.4 in Calm     88 % 0.0 in 0.0 W/m2 CLR
00:24 10.6 °F 8.8 °F 1010.4 in Calm     89 % 0.0 in 0.0 W/m2 CLR
00:29 10.6 °F 8.8 °F 1010.4 in Calm     89 % 0.0 in 0.0 W/m2 CLR
00:34 10.0 °F 8.3 °F 1010.4 in Calm     89 % 0.0 in 0.0 W/m2 CLR
00:39 10.0 °F 8.3 °F 1010.4 in East 7.4 mph 7.4 mph 89 % 0.0 in 0.0 W/m2 CLR
00:45 10.6 °F 9.0 °F 1010.4 in Calm     90 % 0.0 in 0.0 W/m2 CLR
00:50 10.6 °F 9.0 °F 1010.4 in Calm     90 % 0.0 in 0.0 W/m2 CLR
00:55 10.6 °F 9.0 °F 1010.4 in Calm     90 % 0.0 in 0.0 W/m2 CLR
01:00 10.6 °F 8.8 °F 1010.4 in Calm     89 % 0.0 in 0.0 W/m2 CLR
01:05 10.6 °F 8.7 °F 1010.4 in Calm     88 % 0.0 in 0.0 W/m2 CLR
01:10 10.6 °F 8.7 °F 1010.0 in Calm     88 % 0.0 in 0.0 W/m2 CLR
01:15 10.6 °F 8.7 °F 1010.0 in Calm     88 % 0.0 in 0.0 W/m2 CLR
01:20 10.6 °F 8.5 °F 1010.4 in Calm     87 % 0.0 in 0.0 W/m2 CLR
01:25 10.6 °F 8.3 °F 1010.0 in Calm     86 % 0.0 in 0.0 W/m2 CLR
01:30 10.6 °F 8.1 °F 1010.0 in Calm     85 % 0.0 in 0.0 W/m2 CLR
01:35 10.6 °F 7.9 °F 1010.0 in Calm     84 % 0.0 in 0.0 W/m2 CLR
01:40 10.0 °F 7.2 °F 1010.0 in Calm     83 % 0.0 in 0.0 W/m2 CLR
01:45 10.6 °F 7.8 °F 1010.0 in Calm     83 % 0.0 in 0.0 W/m2 CLR
01:50 10.6 °F 7.8 °F 1010.0 in Calm     83 % 0.0 in 0.0 W/m2 CLR
01:55 10.0 °F 7.2 °F 1010.0 in Calm     83 % 0.0 in 0.0 W/m2 CLR
02:00 10.0 °F 6.9 °F 1009.7 in Calm     81 % 0.0 in 0.0 W/m2 CLR
02:05 9.4 °F 6.2 °F 1009.7 in Calm     80 % 0.0 in 0.0 W/m2 CLR
02:10 9.4 °F 6.2 °F 1009.7 in Calm     80 % 0.0 in 0.0 W/m2 CLR
02:15 9.4 °F 6.2 °F 1009.7 in Calm     80 % 0.0 in 0.0 W/m2 CLR
02:20 9.4 °F 6.3 °F 1009.7 in Calm     81 % 0.0 in 0.0 W/m2 CLR
02:25 9.4 °F 6.5 °F 1009.7 in Calm     82 % 0.0 in 0.0 W/m2 CLR
02:30 8.9 °F 5.8 °F 1009.7 in Calm     81 % 0.0 in 0.0 W/m2 CLR
02:35 8.9 °F 5.8 °F 1009.7 in Calm     81 % 0.0 in 0.0 W/m2 CLR
02:40 8.9 °F 5.6 °F 1009.7 in West 1.6 mph   80 % 0.0 in 0.0 W/m2 CLR
02:45 8.9 °F 5.4 °F 1009.7 in Calm     79 % 0.0 in 0.0 W/m2 CLR
02:50 8.9 °F 5.3 °F 1009.7 in Calm     78 % 0.0 in 0.0 W/m2 CLR
02:55 8.3 °F 4.6 °F 1009.7 in WSW 5.6 mph 5.6 mph 77 % 0.0 in 0.0 W/m2 CLR
03:00 8.3 °F 4.3 °F 1009.7 in West 1.6 mph 1.6 mph 76 % 0.0 in 0.0 W/m2 CLR
03:05 8.3 °F 4.2 °F 1009.7 in Calm     75 % 0.0 in 0.0 W/m2 CLR
03:10 8.3 °F 4.2 °F 1009.7 in Calm     75 % 0.0 in 0.0 W/m2 CLR
03:15 8.9 °F 4.7 °F 1009.7 in Calm     75 % 0.0 in 0.0 W/m2 CLR
03:20 8.9 °F 5.1 °F 1009.7 in Calm     77 % 0.0 in 0.0 W/m2 CLR
03:25 8.9 °F 5.3 °F 1009.4 in Calm     78 % 0.0 in 0.0 W/m2 CLR
03:30 8.9 °F 5.4 °F 1009.4 in Calm     79 % 0.0 in 0.0 W/m2 CLR
03:35 8.9 °F 5.4 °F 1009.4 in Calm     79 % 0.0 in 0.0 W/m2 CLR
03:40 9.4 °F 6.2 °F 1009.4 in Calm     80 % 0.0 in 0.0 W/m2 CLR
03:45 9.4 °F 6.3 °F 1009.4 in Calm     81 % 0.0 in 0.0 W/m2 CLR
03:50 9.4 °F 6.2 °F 1009.4 in Calm     80 % 0.0 in 0.0 W/m2 CLR
03:55 9.4 °F 6.0 °F 1009.4 in Calm     79 % 0.0 in 0.0 W/m2 CLR
04:00 9.4 °F 6.0 °F 1009.4 in Calm     79 % 0.0 in 0.0 W/m2 CLR
04:05 9.4 °F 6.2 °F 1009.0 in Calm     80 % 0.0 in 0.0 W/m2 CLR
04:10 9.4 °F 6.3 °F 1009.4 in Calm     81 % 0.0 in 0.0 W/m2 CLR
04:15 9.4 °F 6.5 °F 1009.4 in Calm     82 % 0.0 in 0.0 W/m2 CLR
04:20 9.4 °F 6.5 °F 1009.4 in Calm     82 % 0.0 in 0.0 W/m2 CLR
04:25 9.4 °F 6.7 °F 1009.4 in Calm     83 % 0.0 in 0.0 W/m2 CLR
04:30 9.4 °F 6.9 °F 1009.4 in Calm     84 % 0.0 in 0.0 W/m2 CLR
04:35 9.4 °F 6.9 °F 1009.0 in Calm     84 % 0.0 in 0.0 W/m2 CLR
04:40 9.4 °F 6.7 °F 1009.0 in Calm     83 % 0.0 in 0.0 W/m2 CLR
04:41 9.4 °F 6.7 °F 1009.0 in Calm     83 % 0.0 in 0.0 W/m2 CLR
04:46 9.4 °F 6.7 °F 1009.0 in WSW 4.8 mph 4.8 mph 83 % 0.0 in 0.0 W/m2 CLR
04:51 9.4 °F 6.2 °F 1009.0 in West 5.6 mph 5.6 mph 80 % 0.0 in 0.0 W/m2 CLR
04:56 8.9 °F 5.3 °F 1009.0 in WNW 9.3 mph 9.3 mph 78 % 0.0 in 0.0 W/m2 CLR
05:01 8.9 °F 4.9 °F 1009.0 in Calm     76 % 0.0 in 0.0 W/m2 CLR
05:06 8.9 °F 5.1 °F 1009.0 in Calm     77 % 0.0 in 0.0 W/m2 CLR
05:11 8.9 °F 5.4 °F 1008.7 in Calm     79 % 0.0 in 0.0 W/m2 CLR
05:16 9.4 °F 6.2 °F 1008.7 in Calm     80 % 0.0 in 0.0 W/m2 CLR
05:21 10.0 °F 6.7 °F 1008.7 in Calm     80 % 0.0 in 0.0 W/m2 CLR
05:26 10.6 °F 7.4 °F 1008.7 in Calm     81 % 0.0 in 0.0 W/m2 CLR
05:31 10.6 °F 7.4 °F 1008.7 in Calm     81 % 0.0 in 0.0 W/m2 CLR
05:36 10.6 °F 7.4 °F 1008.7 in Calm     81 % 0.0 in 0.0 W/m2 CLR
05:41 10.0 °F 6.7 °F 1008.7 in Calm   0.2 mph 80 % 0.0 in 0.0 W/m2 CLR
05:46 9.4 °F 6.0 °F 1008.7 in SW 1.9 mph   79 % 0.0 in 0.0 W/m2 CLR
05:51 8.9 °F 5.1 °F 1008.7 in Calm     77 % 0.0 in 0.0 W/m2 CLR
05:56 8.3 °F 4.6 °F 1009.0 in Calm     77 % 0.0 in 0.0 W/m2 CLR
06:01 8.3 °F 4.3 °F 1008.7 in West 9.3 mph 9.3 mph 76 % 0.0 in 0.0 W/m2 CLR
06:06 8.3 °F 4.2 °F 1008.7 in WSW 11.1 mph 11.1 mph 75 % 0.0 in 0.0 W/m2 CLR
06:11 8.3 °F 4.2 °F 1008.7 in Calm     75 % 0.0 in 0.0 W/m2 CLR
06:16 8.3 °F 4.3 °F 1008.7 in Calm     76 % 0.0 in 0.0 W/m2 CLR
06:21 8.9 °F 5.1 °F 1008.7 in Calm     77 % 0.0 in 0.0 W/m2 CLR
06:26 8.9 °F 5.3 °F 1008.7 in Calm     78 % 0.0 in 0.0 W/m2 CLR
06:31 8.9 °F 5.4 °F 1008.7 in Calm     79 % 0.0 in 0.0 W/m2 CLR
06:36 8.9 °F 5.6 °F 1009.0 in Calm     80 % 0.0 in 0.0 W/m2 CLR
06:41 8.9 °F 5.6 °F 1008.7 in Calm     80 % 0.0 in 0.0 W/m2 CLR
06:46 8.9 °F 5.6 °F 1008.7 in Calm     80 % 0.0 in 0.0 W/m2 CLR
06:51 8.9 °F 5.8 °F 1008.7 in Calm     81 % 0.0 in 0.0 W/m2 CLR
06:56 8.9 °F 5.8 °F 1008.7 in Calm     81 % 0.0 in 0.0 W/m2 CLR
07:01 8.9 °F 5.8 °F 1008.7 in Calm     81 % 0.0 in 0.0 W/m2 CLR
07:06 8.9 °F 6.0 °F 1009.0 in Calm     82 % 0.0 in 0.0 W/m2 CLR
07:11 8.9 °F 6.0 °F 1009.0 in Calm     82 % 0.0 in 0.0 W/m2 OVC
07:16 8.3 °F 5.4 °F 1009.0 in Calm     82 % 0.0 in 0.0 W/m2 OVC
07:21 8.3 °F 5.4 °F 1008.7 in Calm     82 % 0.0 in 0.0 W/m2 OVC
07:26 8.3 °F 5.4 °F 1008.7 in Calm     82 % 0.0 in 0.0 W/m2 OVC
07:31 8.3 °F 5.4 °F 1008.7 in Calm     82 % 0.3 in 5.0 W/m2 RA
07:36 8.3 °F 5.4 °F 1009.0 in Calm     82 % 0.3 in 5.0 W/m2
07:41 8.9 °F 6.2 °F 1009.0 in Calm     83 % 0.3 in 7.0 W/m2 CLR
07:46 8.9 °F 6.2 °F 1009.0 in Calm     83 % 0.3 in 9.0 W/m2 BKN
07:51 8.9 °F 6.2 °F 1009.0 in Calm     83 % 0.3 in 12.0 W/m2 BKN
07:56 8.9 °F 6.2 °F 1009.0 in Calm     83 % 0.3 in 16.0 W/m2 BKN
08:01 8.9 °F 6.2 °F 1009.0 in Calm     83 % 0.3 in 25.0 W/m2 BKN
08:06 9.4 °F 6.7 °F 1009.0 in WSW 5.6 mph 5.6 mph 83 % 0.3 in 33.0 W/m2 BKN
08:11 9.4 °F 6.2 °F 1009.0 in WSW 11.1 mph 11.1 mph 80 % 0.3 in 40.0 W/m2 BKN
08:16 9.4 °F 5.6 °F 1009.0 in Calm     77 % 0.3 in 40.0 W/m2 BKN
08:21 9.4 °F 5.6 °F 1009.0 in Calm     77 % 0.3 in 42.0 W/m2 BKN
08:26 10.0 °F 5.8 °F 1009.0 in SW 5.6 mph 5.6 mph 75 % 0.3 in 30.0 W/m2 BKN
08:32 10.6 °F 6.1 °F 1009.0 in SW 5.6 mph 5.6 mph 74 % 0.0 in 33.0 W/m2 BKN
08:37 10.6 °F 6.1 °F 1009.0 in WSW 5.6 mph 5.6 mph 74 % 0.0 in 25.0 W/m2 BKN
08:42 10.6 °F 5.9 °F 1009.0 in SW 7.4 mph 7.4 mph 73 % 0.0 in 23.0 W/m2 BKN
08:47 11.1 °F 6.4 °F 1009.0 in West 3.7 mph 3.7 mph 73 % 0.0 in 35.0 W/m2 BKN
08:52 11.1 °F 6.3 °F 1009.0 in Calm     72 % 0.0 in 54.0 W/m2 BKN
08:57 11.1 °F 6.3 °F 1009.0 in NE 3.7 mph 3.7 mph 72 % 0.0 in 72.0 W/m2 SCT
09:02 11.1 °F 6.7 °F 1009.0 in ENE 5.6 mph 5.6 mph 74 % 0.0 in 65.0 W/m2 SCT
09:07 11.7 °F 7.4 °F 1009.0 in NE 5.6 mph 5.6 mph 75 % 0.0 in 72.0 W/m2 FEW
09:12 11.7 °F 7.6 °F 1009.0 in Calm     76 % 0.0 in 98.0 W/m2 FEW
09:17 11.7 °F 7.6 °F 1009.0 in NE 4.8 mph 4.8 mph 76 % 0.0 in 102.0 W/m2 CLR
09:22 12.2 °F 8.1 °F 1009.0 in Calm     76 % 0.0 in 114.0 W/m2 CLR
09:27 12.2 °F 8.5 °F 1009.0 in Calm     78 % 0.0 in 130.0 W/m2 CLR
09:32 12.2 °F 8.3 °F 1008.7 in Calm     77 % 0.0 in 153.0 W/m2 CLR
09:37 12.8 °F 8.8 °F 1009.4 in Calm     77 % 0.0 in 183.0 W/m2 CLR
09:42 12.8 °F 8.7 °F 1009.4 in Calm     76 % 0.0 in 192.0 W/m2 CLR
09:47 13.3 °F 9.0 °F 1009.7 in Calm     75 % 0.0 in 271.0 W/m2 CLR
09:52 13.3 °F 9.0 °F 1009.7 in Calm     75 % 0.0 in 176.0 W/m2 CLR
09:57 13.9 °F 9.3 °F 1009.4 in Calm     74 % 0.0 in 160.0 W/m2 CLR
10:02 13.9 °F 9.3 °F 1009.7 in Calm     74 % 0.0 in 160.0 W/m2 CLR
10:07 14.4 °F 9.9 °F 1009.4 in Calm     74 % 0.0 in 288.0 W/m2 CLR
10:12 15.0 °F 10.4 °F 1009.4 in Calm     74 % 0.0 in 153.0 W/m2 CLR
10:17 15.0 °F 10.2 °F 1009.4 in Calm     73 % 0.0 in 213.0 W/m2 CLR
10:22 15.6 °F 10.7 °F 1009.4 in Calm     73 % 0.0 in 255.0 W/m2 CLR
10:27 15.6 °F 10.9 °F 1009.4 in Calm     74 % 0.0 in 283.0 W/m2 CLR
10:32 16.1 °F 11.3 °F 1009.4 in Calm     73 % 0.0 in 185.0 W/m2 CLR
10:37 16.7 °F 11.2 °F 1009.4 in Calm     70 % 0.0 in 144.0 W/m2 CLR
10:42 16.7 °F 10.3 °F 1009.4 in SSW 11.1 mph 11.1 mph 66 % 0.0 in 144.0 W/m2 CLR
10:47 16.7 °F 9.6 °F 1009.4 in SSW 13.0 mph 13.0 mph 63 % 0.0 in 171.0 W/m2 CLR
10:52 17.2 °F 10.1 °F 1009.4 in SSW 9.7 mph 9.7 mph 63 % 0.0 in 158.0 W/m2 CLR
10:57 17.2 °F 9.9 °F 1009.4 in South 5.6 mph 5.6 mph 62 % 0.0 in 188.0 W/m2 CLR
11:02 17.8 °F 10.6 °F 1009.0 in SSW 6.4 mph 6.4 mph 63 % 0.0 in 287.0 W/m2 CLR
11:07 18.3 °F 10.7 °F 1009.0 in SW 13.0 mph 13.0 mph 61 % 0.0 in 309.0 W/m2 CLR
11:12 18.3 °F 10.4 °F 1009.0 in SSW 16.1 mph 16.1 mph 60 % 0.0 in 320.0 W/m2 CLR
11:17 18.9 °F 10.7 °F 1008.7 in SSW 14.8 mph 14.8 mph 59 % 0.0 in 341.0 W/m2 CLR
11:22 19.4 °F 10.7 °F 1008.7 in SSW 13.0 mph 13.0 mph 57 % 0.0 in 390.0 W/m2 CLR
11:27 19.4 °F 10.2 °F 1008.7 in SSW 16.7 mph 16.7 mph 55 % 0.0 in 396.0 W/m2 CLR
11:32 20.0 °F 11.2 °F 1008.7 in SSW 9.3 mph 9.3 mph 57 % 0.0 in 385.0 W/m2 CLR
11:37 20.0 °F 10.9 °F 1008.7 in SW 13.0 mph 13.0 mph 56 % 0.0 in 485.0 W/m2 CLR
11:42 20.6 °F 10.1 °F 1008.7 in SSW 18.5 mph 18.5 mph 51 % 0.0 in 417.0 W/m2 CLR
11:47 20.6 °F 10.1 °F 1008.4 in SW 16.7 mph 16.7 mph 51 % 0.0 in 403.0 W/m2 CLR
11:52 20.6 °F 10.1 °F 1008.4 in SSW 20.4 mph 20.4 mph 51 % 0.0 in 355.0 W/m2 CLR
11:57 20.6 °F 9.8 °F 1008.4 in SSW 13.0 mph 13.0 mph 50 % 0.0 in 388.0 W/m2 CLR
12:02 21.1 °F 10.6 °F 1008.0 in SSW 7.4 mph 7.4 mph 51 % 0.0 in 795.0 W/m2 CLR
12:07 22.2 °F 11.3 °F 1008.0 in SW 6.4 mph 6.4 mph 50 % 0.0 in 765.0 W/m2 CLR
12:12 22.2 °F 10.4 °F 1008.0 in South 14.8 mph 14.8 mph 47 % 0.0 in 721.0 W/m2 CLR
12:17 22.2 °F 10.7 °F 1007.7 in SSW 20.9 mph 20.9 mph 48 % 0.0 in 276.0 W/m2 CLR
12:22 21.7 °F 10.2 °F 1007.7 in South 8.0 mph 8.0 mph 48 % 0.0 in 807.0 W/m2 CLR
12:27 22.2 °F 10.1 °F 1007.7 in SW 16.7 mph 16.7 mph 46 % 0.0 in 469.0 W/m2 CLR
12:32 22.2 °F 9.4 °F 1007.7 in WSW 25.9 mph 25.9 mph 44 % 0.0 in 649.0 W/m2 CLR
12:37 22.2 °F 9.7 °F 1007.7 in SW 11.1 mph 11.1 mph 45 % 0.0 in 554.0 W/m2 CLR
12:42 22.2 °F 10.1 °F 1007.7 in WSW 5.6 mph 5.6 mph 46 % 0.0 in 269.0 W/m2 CLR
12:47 22.2 °F 10.1 °F 1007.3 in SSW 11.1 mph 11.1 mph 46 % 0.0 in 206.0 W/m2 CLR
12:52 21.7 °F 9.6 °F 1007.3 in SW 5.6 mph 5.6 mph 46 % 0.0 in 188.0 W/m2 CLR
12:57 21.7 °F 9.6 °F 1007.3 in Calm     46 % 0.0 in 279.0 W/m2 CLR
13:02 21.7 °F 8.9 °F 1007.0 in SSW 5.6 mph 5.6 mph 44 % 0.0 in 265.0 W/m2 CLR
13:07 21.7 °F 8.9 °F 1007.0 in Calm     44 % 0.0 in 251.0 W/m2 CLR
13:12 21.7 °F 8.9 °F 1007.0 in SSW 1.6 mph 1.6 mph 44 % 0.0 in 202.0 W/m2 CLR
13:17 21.7 °F 9.2 °F 1007.0 in SSW 5.6 mph 5.6 mph 45 % 0.0 in 144.0 W/m2 CLR
13:22 21.7 °F 9.6 °F 1007.0 in WSW 22.2 mph 22.2 mph 46 % 0.0 in 144.0 W/m2 CLR
13:27 21.1 °F 9.3 °F 1007.0 in SW 31.5 mph 31.5 mph 47 % 0.0 in 116.0 W/m2 CLR
13:32 20.0 °F 8.7 °F 1006.7 in SSW 5.6 mph 5.6 mph 48 % 0.0 in 179.0 W/m2 CLR
13:37 20.0 °F 9.6 °F 1006.7 in SSW 5.6 mph 5.6 mph 51 % 0.0 in 334.0 W/m2 CLR
13:42 20.6 °F 9.8 °F 1006.7 in West 18.5 mph 18.5 mph 50 % 0.0 in 640.0 W/m2 CLR
13:47 21.1 °F 9.7 °F 1006.3 in NW 9.3 mph 9.3 mph 48 % 0.0 in 232.0 W/m2 CLR
13:52 20.6 °F 9.2 °F 1006.3 in WNW 5.6 mph 5.6 mph 48 % 0.0 in 185.0 W/m2 CLR
13:57 20.6 °F 10.3 °F 1006.3 in Calm     52 % 0.0 in 141.0 W/m2 CLR
14:02 20.6 °F 11.2 °F 1006.0 in NW 13.0 mph 13.0 mph 55 % 0.0 in 239.0 W/m2 CLR
14:07 20.6 °F 11.4 °F 1006.0 in Calm     56 % 0.0 in 352.0 W/m2 CLR
14:12 20.6 °F 12.0 °F 1006.0 in Calm     58 % 0.0 in 466.0 W/m2 CLR
14:17 21.1 °F 11.4 °F 1005.6 in Calm     54 % 0.0 in 316.0 W/m2 CLR
14:22 21.1 °F 11.4 °F 1005.6 in Calm   0.6 mph 54 % 0.0 in 346.0 W/m2 CLR
14:27 21.1 °F 11.2 °F 1005.6 in Calm     53 % 0.0 in 450.0 W/m2 CLR
14:32 21.7 °F 11.1 °F 1005.6 in West 11.1 mph 11.1 mph 51 % 0.0 in 373.0 W/m2 CLR
14:37 21.7 °F 11.1 °F 1005.3 in WNW 7.4 mph 7.4 mph 51 % 0.0 in 454.0 W/m2 CLR
14:42 21.7 °F 11.1 °F 1005.3 in NW 5.6 mph 5.6 mph 51 % 0.0 in 309.0 W/m2 CLR
14:47 21.7 °F 10.5 °F 1005.3 in NW 9.3 mph 9.3 mph 49 % 0.0 in 262.0 W/m2 CLR
14:52 22.2 °F 11.6 °F 1005.0 in NW 11.1 mph 11.1 mph 51 % 0.0 in 824.0 W/m2 CLR
14:57 22.2 °F 10.4 °F 1005.0 in WNW 3.7 mph   47 % 0.0 in 863.0 W/m2 CLR
15:02 22.8 °F 10.6 °F 1004.6 in Calm     46 % 0.0 in 800.0 W/m2 CLR
15:07 22.8 °F 10.6 °F 1004.6 in North 5.6 mph   46 % 0.0 in 190.0 W/m2 CLR
15:12 22.2 °F 9.7 °F 1004.6 in West 4.8 mph 4.8 mph 45 % 0.0 in 142.0 W/m2 CLR
15:17 22.2 °F 9.7 °F 1004.6 in West 11.1 mph 11.1 mph 45 % 0.0 in 125.0 W/m2 CLR
15:22 21.7 °F 9.2 °F 1004.6 in Calm     45 % 0.0 in 241.0 W/m2 CLR
15:27 21.7 °F 9.6 °F 1004.6 in Calm     46 % 0.0 in 209.0 W/m2 CLR
15:32 21.7 °F 9.6 °F 1004.6 in Calm     46 % 0.0 in 316.0 W/m2 CLR
15:37 22.2 °F 9.7 °F 1004.6 in South 5.6 mph   45 % 0.0 in 483.0 W/m2 CLR
15:43 22.8 °F 10.2 °F 1004.3 in WSW 5.6 mph 5.6 mph 45 % 0.0 in 643.0 W/m2 CLR
15:48 22.8 °F 9.9 °F 1004.3 in SSW 9.3 mph 9.3 mph 44 % 0.0 in 561.0 W/m2 CLR
15:53 22.8 °F 9.9 °F 1003.9 in SW 11.1 mph 11.1 mph 44 % 0.0 in 387.0 W/m2 CLR
15:58 22.8 °F 10.2 °F 1003.9 in SW 11.1 mph 11.1 mph 45 % 0.0 in 557.0 W/m2 CLR
16:03 22.8 °F 9.9 °F 1003.9 in SW 11.1 mph 11.1 mph 44 % 0.0 in 149.0 W/m2 CLR
16:08 22.2 °F 9.7 °F 1003.9 in SW 5.6 mph 5.6 mph 45 % 0.0 in 172.0 W/m2 CLR
16:13 22.2 °F 9.4 °F 1003.9 in WSW 11.1 mph 11.1 mph 44 % 0.0 in 450.0 W/m2 CLR
16:18 22.2 °F 9.7 °F 1003.9 in WSW 6.4 mph 7.1 mph 45 % 0.0 in 223.0 W/m2 CLR
16:23 22.2 °F 9.4 °F 1003.9 in WSW 9.3 mph 9.3 mph 44 % 0.0 in 227.0 W/m2 CLR
16:28 22.2 °F 9.7 °F 1003.9 in SSW 14.8 mph 14.8 mph 45 % 0.0 in 171.0 W/m2 CLR
16:33 22.2 °F 10.1 °F 1003.9 in South 14.8 mph 14.8 mph 46 % 0.0 in 109.0 W/m2 CLR
16:38 21.7 °F 9.6 °F 1003.9 in SSW 3.7 mph   46 % 0.0 in 65.0 W/m2 CLR
16:43 21.1 °F 9.3 °F 1003.9 in SSW 3.2 mph 3.2 mph 47 % 0.0 in 67.0 W/m2 FEW
16:48 21.1 °F 9.3 °F 1003.9 in SW 5.6 mph 5.6 mph 47 % 0.0 in 72.0 W/m2 FEW
16:53 21.1 °F 9.3 °F 1003.9 in SW 5.6 mph   47 % 0.0 in 95.0 W/m2 FEW
16:58 21.1 °F 9.3 °F 1004.3 in West 14.8 mph 14.8 mph 47 % 0.0 in 26.0 W/m2 FEW
17:03 20.6 °F 9.4 °F 1004.6 in NNE 29.6 mph 29.6 mph 49 % 0.0 in 35.0 W/m2 BKN
17:08 20.0 °F 9.3 °F 1004.6 in North 46.7 mph 46.7 mph 50 % 0.0 in 49.0 W/m2 BKN
17:13 18.9 °F 9.4 °F 1004.6 in NNW 42.6 mph 42.6 mph 54 % 0.0 in 37.0 W/m2 BKN
17:18 18.3 °F 9.4 °F 1004.6 in NNW 25.9 mph 25.9 mph 56 % 0.0 in 35.0 W/m2 BKN
17:23 17.8 °F 9.2 °F 1005.0 in NNW 27.8 mph 27.8 mph 57 % 0.0 in 21.0 W/m2 BKN
17:28 17.2 °F 8.9 °F 1005.0 in NNW 25.7 mph 25.7 mph 58 % 0.0 in 12.0 W/m2 BKN
17:33 17.2 °F 9.1 °F 1005.0 in NNW 22.2 mph 22.2 mph 59 % 0.0 in 14.0 W/m2 BKN
17:38 17.2 °F 9.1 °F 1005.0 in North 16.7 mph 16.7 mph 59 % 0.0 in 14.0 W/m2 BKN
17:43 16.7 °F 8.6 °F 1005.3 in NW 18.5 mph 18.5 mph 59 % 0.0 in 18.0 W/m2 BKN
17:48 16.7 °F 8.6 °F 1005.3 in NW 16.7 mph 16.7 mph 59 % 0.0 in 16.0 W/m2 BKN
17:53 16.7 °F 8.9 °F 1005.3 in WNW 11.1 mph 11.1 mph 60 % 0.0 in 11.0 W/m2 BKN
17:58 16.7 °F 9.3 °F 1005.6 in Calm     62 % 0.0 in 7.0 W/m2 BKN
18:03 16.1 °F 9.5 °F 1006.0 in Calm     65 % 0.5 in 7.0 W/m2 RA
18:08 16.1 °F 10.4 °F 1006.0 in Calm     69 % 1.5 in 5.0 W/m2 RA
18:13 15.0 °F 10.2 °F 1006.0 in Calm     73 % 1.8 in 5.0 W/m2 RA
18:14 15.0 °F 10.2 °F 1006.0 in Calm     73 % 2.0 in 5.0 W/m2 RA
18:19 14.4 °F 10.1 °F 1006.0 in Calm     75 % 2.0 in 0.0 W/m2
18:24 13.9 °F 9.9 °F 1006.0 in Calm     77 % 2.0 in 5.0 W/m2 CLR
18:29 13.9 °F 10.3 °F 1006.0 in Calm     79 % 2.0 in 5.0 W/m2 OVC
18:34 13.9 °F 10.3 °F 1006.0 in Calm     79 % 2.0 in 5.0 W/m2 OVC
18:39 13.9 °F 10.5 °F 1006.0 in Calm     80 % 2.0 in 0.0 W/m2 OVC
18:44 13.9 °F 10.5 °F 1005.3 in SSW 11.1 mph 11.1 mph 80 % 2.0 in 0.0 W/m2 OVC
18:49 13.3 °F 9.6 °F 1004.6 in South 16.7 mph 16.7 mph 78 % 2.0 in 23.0 W/m2 BKN
18:54 13.3 °F 10.2 °F 1004.6 in SSW 14.8 mph 14.8 mph 81 % 2.0 in 23.0 W/m2 BKN
18:59 13.3 °F 10.2 °F 1004.3 in SSW 14.8 mph 14.8 mph 81 % 1.8 in 19.0 W/m2 BKN
19:04 13.3 °F 9.9 °F 1004.3 in WSW 3.7 mph   80 % 1.5 in 7.0 W/m2 OVC
19:09 13.3 °F 10.2 °F 1004.6 in NNW 7.4 mph 7.4 mph 81 % 0.5 in 0.0 W/m2 OVC
19:14 13.3 °F 10.3 °F 1004.3 in Calm     82 % 0.0 in 0.0 W/m2 CLR
19:19 13.3 °F 10.5 °F 1004.6 in Calm     83 % 0.0 in 0.0 W/m2 CLR
19:24 13.3 °F 10.7 °F 1004.6 in NNW 9.3 mph 9.3 mph 84 % 0.0 in 0.0 W/m2 CLR
19:29 13.3 °F 10.5 °F 1004.6 in Calm     83 % 0.0 in 0.0 W/m2 CLR
19:34 12.8 °F 9.9 °F 1005.0 in Calm     83 % 0.0 in 0.0 W/m2 CLR
19:39 12.8 °F 10.2 °F 1005.0 in Calm     84 % 0.0 in 0.0 W/m2 CLR
19:44 12.8 °F 10.3 °F 1004.6 in Calm     85 % 0.0 in 0.0 W/m2 CLR
19:49 12.8 °F 10.5 °F 1005.0 in Calm     86 % 0.0 in 0.0 W/m2 CLR
19:54 12.2 °F 9.9 °F 1004.6 in Calm     86 % 0.0 in 0.0 W/m2 CLR
19:59 12.2 °F 9.9 °F 1005.0 in Calm     86 % 0.0 in 0.0 W/m2 CLR
20:04 12.2 °F 9.9 °F 1005.3 in Calm     86 % 0.0 in 0.0 W/m2 CLR
20:09 12.2 °F 10.1 °F 1005.3 in Calm     87 % 0.0 in 0.0 W/m2 CLR
20:14 12.2 °F 10.1 °F 1005.3 in Calm     87 % 0.0 in 0.0 W/m2 CLR
20:19 11.7 °F 9.6 °F 1005.3 in Calm     87 % 0.0 in 0.0 W/m2 CLR
20:24 12.2 °F 10.3 °F 1005.0 in Calm     88 % 0.0 in 0.0 W/m2 CLR
20:29 11.7 °F 9.7 °F 1005.3 in Calm     88 % 0.0 in 0.0 W/m2 CLR
20:34 12.2 °F 10.3 °F 1005.3 in Calm     88 % 0.0 in 0.0 W/m2 CLR
20:39 12.2 °F 10.3 °F 1005.3 in Calm     88 % 0.0 in 0.0 W/m2 CLR
20:44 12.2 °F 10.3 °F 1005.3 in Calm     88 % 0.0 in 0.0 W/m2 CLR
20:49 12.2 °F 10.3 °F 1005.6 in NW 3.7 mph 3.7 mph 88 % 0.0 in 0.0 W/m2 CLR
20:54 11.7 °F 9.6 °F 1005.6 in Calm     87 % 0.0 in 0.0 W/m2 CLR
20:59 11.7 °F 9.6 °F 1005.6 in Calm     87 % 0.0 in 0.0 W/m2 CLR
21:04 11.7 °F 9.6 °F 1005.6 in Calm     87 % 0.0 in 0.0 W/m2 CLR
21:09 11.7 °F 9.6 °F 1005.3 in Calm     87 % 0.0 in 0.0 W/m2 CLR
21:14 11.1 °F 9.2 °F 1005.3 in Calm     88 % 0.0 in 0.0 W/m2 CLR
21:19 11.1 °F 9.2 °F 1005.6 in Calm     88 % 0.0 in 0.0 W/m2 CLR
21:24 11.1 °F 9.2 °F 1005.6 in Calm     88 % 0.0 in 0.0 W/m2 CLR
21:29 11.1 °F 8.5 °F 1005.6 in NW 7.4 mph 7.4 mph 84 % 0.0 in 0.0 W/m2 CLR
21:34 11.1 °F 6.7 °F 1005.3 in NW 11.3 mph 11.3 mph 74 % 0.0 in 0.0 W/m2 CLR
21:39 11.1 °F 5.6 °F 1005.0 in NW 8.0 mph 8.2 mph 69 % 0.0 in 0.0 W/m2 CLR
21:44 10.6 °F 5.7 °F 1005.3 in NNW 7.4 mph 7.4 mph 72 % 0.0 in 0.0 W/m2 CLR
21:49 10.6 °F 5.1 °F 1005.0 in NW 7.4 mph 7.4 mph 69 % 0.0 in 0.0 W/m2 CLR
21:54 10.6 °F 5.3 °F 1004.6 in NNW 9.3 mph 9.3 mph 70 % 0.0 in 0.0 W/m2 CLR
21:59 10.6 °F 5.1 °F 1005.0 in Calm     69 % 0.0 in 0.0 W/m2 CLR
22:04 10.6 °F 6.7 °F 1005.3 in SSE 5.6 mph 5.6 mph 77 % 0.0 in 0.0 W/m2 CLR
22:09 10.6 °F 7.4 °F 1005.3 in Calm     81 % 0.0 in 0.0 W/m2 CLR
22:14 10.6 °F 7.9 °F 1005.3 in Calm     84 % 0.0 in 0.0 W/m2 CLR
22:19 10.6 °F 7.9 °F 1005.3 in Calm     84 % 0.0 in 0.0 W/m2 CLR
22:25 10.6 °F 8.1 °F 1005.6 in Calm     85 % 0.0 in 0.0 W/m2 CLR
22:30 10.6 °F 8.1 °F 1005.6 in Calm     85 % 0.0 in 0.0 W/m2 CLR
22:35 10.6 °F 7.9 °F 1005.6 in Calm     84 % 0.0 in 0.0 W/m2 CLR
22:40 10.6 °F 7.9 °F 1005.6 in Calm     84 % 0.0 in 0.0 W/m2 CLR
22:45 10.6 °F 7.8 °F 1005.6 in Calm     83 % 0.0 in 0.0 W/m2 CLR
22:50 10.6 °F 7.8 °F 1005.3 in Calm     83 % 0.0 in 0.0 W/m2 CLR
22:55 10.6 °F 7.6 °F 1005.3 in Calm     82 % 0.0 in 0.0 W/m2 CLR
23:00 10.6 °F 6.7 °F 1005.0 in Calm     77 % 0.0 in 0.0 W/m2 CLR
23:05 10.6 °F 6.9 °F 1005.0 in North 9.3 mph 9.3 mph 78 % 0.0 in 0.0 W/m2 CLR
23:10 10.0 °F 6.5 °F 1005.3 in NNW 5.6 mph 5.6 mph 79 % 0.0 in 0.0 W/m2 CLR
23:15 10.0 °F 6.3 °F 1005.0 in North 5.6 mph 5.6 mph 78 % 0.0 in 0.0 W/m2 CLR
23:20 9.4 °F 5.8 °F 1005.0 in Calm     78 % 0.0 in 0.0 W/m2 CLR
23:25 9.4 °F 6.2 °F 1005.0 in Calm     80 % 0.0 in 0.0 W/m2 CLR
23:30 10.0 °F 6.9 °F 1005.3 in Calm     81 % 0.0 in 0.0 W/m2 CLR
23:35 10.0 °F 7.1 °F 1005.3 in Calm     82 % 0.0 in 0.0 W/m2 CLR
23:40 9.4 °F 6.5 °F 1005.3 in Calm     82 % 0.0 in 0.0 W/m2 CLR
23:45 9.4 °F 6.5 °F 1005.3 in Calm     82 % 0.0 in 0.0 W/m2 CLR
23:50 9.4 °F 6.3 °F 1005.3 in Calm     81 % 0.0 in 0.0 W/m2 CLR
23:55 9.4 °F 6.3 °F 1005.3 in Calm     81 % 0.0 in 0.0 W/m2 CLR
Lo Temps de Massalio
Compliments of Weather Underground - 1.25 mb